sensor_id;sensor_type;location;lat;lon;timestamp;pressure;altitude;pressure_sealevel;temperature
20736;BMP180;10528;52.124;5.196;2023-01-28T00:01:26;102868.00;;;9.90
20736;BMP180;10528;52.124;5.196;2023-01-28T00:03:53;102874.00;;;9.90
20736;BMP180;10528;52.124;5.196;2023-01-28T00:06:20;102876.00;;;9.90
20736;BMP180;10528;52.124;5.196;2023-01-28T00:08:47;102888.00;;;9.90
20736;BMP180;10528;52.124;5.196;2023-01-28T00:11:15;102896.00;;;9.80
20736;BMP180;10528;52.124;5.196;2023-01-28T00:13:41;102891.00;;;9.80
20736;BMP180;10528;52.124;5.196;2023-01-28T00:16:09;102884.00;;;9.80
20736;BMP180;10528;52.124;5.196;2023-01-28T00:18:36;102891.00;;;9.80
20736;BMP180;10528;52.124;5.196;2023-01-28T00:21:06;102895.00;;;9.80
20736;BMP180;10528;52.124;5.196;2023-01-28T00:23:35;102891.00;;;9.80
20736;BMP180;10528;52.124;5.196;2023-01-28T00:26:06;102888.00;;;9.80
20736;BMP180;10528;52.124;5.196;2023-01-28T00:28:34;102882.00;;;9.80
20736;BMP180;10528;52.124;5.196;2023-01-28T00:31:11;102880.00;;;9.80
20736;BMP180;10528;52.124;5.196;2023-01-28T00:33:43;102873.00;;;9.80
20736;BMP180;10528;52.124;5.196;2023-01-28T00:36:12;102882.00;;;9.80
20736;BMP180;10528;52.124;5.196;2023-01-28T00:38:41;102871.00;;;9.80
20736;BMP180;10528;52.124;5.196;2023-01-28T00:41:14;102867.00;;;9.80
20736;BMP180;10528;52.124;5.196;2023-01-28T00:43:42;102879.00;;;9.80
20736;BMP180;10528;52.124;5.196;2023-01-28T00:46:11;102878.00;;;9.80
20736;BMP180;10528;52.124;5.196;2023-01-28T00:48:41;102881.00;;;9.90
20736;BMP180;10528;52.124;5.196;2023-01-28T00:51:11;102879.00;;;9.90
20736;BMP180;10528;52.124;5.196;2023-01-28T00:53:39;102875.00;;;9.90
20736;BMP180;10528;52.124;5.196;2023-01-28T00:56:10;102879.00;;;9.90
20736;BMP180;10528;52.124;5.196;2023-01-28T00:58:38;102881.00;;;9.90
20736;BMP180;10528;52.124;5.196;2023-01-28T01:01:15;102868.00;;;9.80
20736;BMP180;10528;52.124;5.196;2023-01-28T01:03:43;102871.00;;;9.80
20736;BMP180;10528;52.124;5.196;2023-01-28T01:06:13;102867.00;;;9.80
20736;BMP180;10528;52.124;5.196;2023-01-28T01:08:40;102862.00;;;9.80
20736;BMP180;10528;52.124;5.196;2023-01-28T01:11:10;102878.00;;;9.80
20736;BMP180;10528;52.124;5.196;2023-01-28T01:13:37;102867.00;;;9.80
20736;BMP180;10528;52.124;5.196;2023-01-28T01:16:08;102875.00;;;9.80
20736;BMP180;10528;52.124;5.196;2023-01-28T01:18:37;102866.00;;;9.80
20736;BMP180;10528;52.124;5.196;2023-01-28T01:21:15;102872.00;;;9.80
20736;BMP180;10528;52.124;5.196;2023-01-28T01:23:45;102872.00;;;9.80
20736;BMP180;10528;52.124;5.196;2023-01-28T01:26:13;102873.00;;;9.80
20736;BMP180;10528;52.124;5.196;2023-01-28T01:28:40;102863.00;;;9.90
20736;BMP180;10528;52.124;5.196;2023-01-28T01:31:15;102871.00;;;9.90
20736;BMP180;10528;52.124;5.196;2023-01-28T01:33:45;102878.00;;;9.90
20736;BMP180;10528;52.124;5.196;2023-01-28T01:36:15;102875.00;;;9.90
20736;BMP180;10528;52.124;5.196;2023-01-28T01:38:43;102879.00;;;10.00
20736;BMP180;10528;52.124;5.196;2023-01-28T01:41:26;102882.00;;;10.00
20736;BMP180;10528;52.124;5.196;2023-01-28T01:44:01;102875.00;;;10.00
20736;BMP180;10528;52.124;5.196;2023-01-28T01:46:35;102883.00;;;10.00
20736;BMP180;10528;52.124;5.196;2023-01-28T01:49:27;102895.00;;;10.00
20736;BMP180;10528;52.124;5.196;2023-01-28T01:52:09;102890.00;;;10.00
20736;BMP180;10528;52.124;5.196;2023-01-28T01:54:42;102897.00;;;10.00
20736;BMP180;10528;52.124;5.196;2023-01-28T01:57:18;102900.00;;;10.00
20736;BMP180;10528;52.124;5.196;2023-01-28T01:59:47;102891.00;;;10.00
20736;BMP180;10528;52.124;5.196;2023-01-28T02:02:14;102891.00;;;10.00
20736;BMP180;10528;52.124;5.196;2023-01-28T02:04:43;102885.00;;;10.00
20736;BMP180;10528;52.124;5.196;2023-01-28T02:07:15;102884.00;;;10.00
20736;BMP180;10528;52.124;5.196;2023-01-28T02:09:44;102884.00;;;10.00
20736;BMP180;10528;52.124;5.196;2023-01-28T02:12:17;102890.00;;;10.10
20736;BMP180;10528;52.124;5.196;2023-01-28T02:14:55;102883.00;;;10.00
20736;BMP180;10528;52.124;5.196;2023-01-28T02:17:24;102895.00;;;10.00
20736;BMP180;10528;52.124;5.196;2023-01-28T02:19:58;102889.00;;;10.00
20736;BMP180;10528;52.124;5.196;2023-01-28T02:26:18;102888.00;;;10.00
20736;BMP180;10528;52.124;5.196;2023-01-28T02:34:47;102905.00;;;9.90
20736;BMP180;10528;52.124;5.196;2023-01-28T02:37:37;102911.00;;;9.90
20736;BMP180;10528;52.124;5.196;2023-01-28T02:40:38;102908.00;;;9.90
20736;BMP180;10528;52.124;5.196;2023-01-28T02:43:39;102916.00;;;9.90
20736;BMP180;10528;52.124;5.196;2023-01-28T02:49:28;102914.00;;;9.90
20736;BMP180;10528;52.124;5.196;2023-01-28T02:55:33;102907.00;;;9.80
20736;BMP180;10528;52.124;5.196;2023-01-28T03:01:25;102895.00;;;9.80
20736;BMP180;10528;52.124;5.196;2023-01-28T03:04:03;102888.00;;;9.80
20736;BMP180;10528;52.124;5.196;2023-01-28T03:06:40;102896.00;;;9.80
20736;BMP180;10528;52.124;5.196;2023-01-28T03:09:11;102900.00;;;9.80
20736;BMP180;10528;52.124;5.196;2023-01-28T03:12:17;102890.00;;;9.80
20736;BMP180;10528;52.124;5.196;2023-01-28T03:15:13;102899.00;;;9.80
20736;BMP180;10528;52.124;5.196;2023-01-28T03:18:10;102897.00;;;9.70
20736;BMP180;10528;52.124;5.196;2023-01-28T03:21:12;102903.00;;;9.70
20736;BMP180;10528;52.124;5.196;2023-01-28T03:24:16;102900.00;;;9.70
20736;BMP180;10528;52.124;5.196;2023-01-28T03:27:37;102906.00;;;9.70
20736;BMP180;10528;52.124;5.196;2023-01-28T03:31:11;102907.00;;;9.70
20736;BMP180;10528;52.124;5.196;2023-01-28T03:34:01;102905.00;;;9.70
20736;BMP180;10528;52.124;5.196;2023-01-28T03:36:48;102905.00;;;9.70
20736;BMP180;10528;52.124;5.196;2023-01-28T03:39:34;102904.00;;;9.70
20736;BMP180;10528;52.124;5.196;2023-01-28T03:42:10;102891.00;;;9.70
20736;BMP180;10528;52.124;5.196;2023-01-28T03:44:48;102890.00;;;9.70
20736;BMP180;10528;52.124;5.196;2023-01-28T03:47:26;102887.00;;;9.70
20736;BMP180;10528;52.124;5.196;2023-01-28T03:49:56;102904.00;;;9.60
20736;BMP180;10528;52.124;5.196;2023-01-28T03:52:31;102881.00;;;9.60
20736;BMP180;10528;52.124;5.196;2023-01-28T03:55:22;102909.00;;;9.60
20736;BMP180;10528;52.124;5.196;2023-01-28T03:57:51;102911.00;;;9.60
20736;BMP180;10528;52.124;5.196;2023-01-28T04:00:18;102903.00;;;9.50
20736;BMP180;10528;52.124;5.196;2023-01-28T04:02:47;102910.00;;;9.50
20736;BMP180;10528;52.124;5.196;2023-01-28T04:05:16;102906.00;;;9.50
20736;BMP180;10528;52.124;5.196;2023-01-28T04:07:47;102898.00;;;9.50
20736;BMP180;10528;52.124;5.196;2023-01-28T04:10:26;102902.00;;;9.50
20736;BMP180;10528;52.124;5.196;2023-01-28T04:12:56;102916.00;;;9.50
20736;BMP180;10528;52.124;5.196;2023-01-28T04:15:24;102911.00;;;9.50
20736;BMP180;10528;52.124;5.196;2023-01-28T04:17:53;102917.00;;;9.50
20736;BMP180;10528;52.124;5.196;2023-01-28T04:20:25;102915.00;;;9.50
20736;BMP180;10528;52.124;5.196;2023-01-28T04:22:51;102925.00;;;9.50
20736;BMP180;10528;52.124;5.196;2023-01-28T04:25:20;102924.00;;;9.50
20736;BMP180;10528;52.124;5.196;2023-01-28T04:27:47;102917.00;;;9.50
20736;BMP180;10528;52.124;5.196;2023-01-28T04:30:21;102936.00;;;9.50
20736;BMP180;10528;52.124;5.196;2023-01-28T04:33:08;102934.00;;;9.50
20736;BMP180;10528;52.124;5.196;2023-01-28T04:35:51;102938.00;;;9.50
20736;BMP180;10528;52.124;5.196;2023-01-28T04:38:34;102930.00;;;9.50
20736;BMP180;10528;52.124;5.196;2023-01-28T04:41:13;102931.00;;;9.50
20736;BMP180;10528;52.124;5.196;2023-01-28T04:43:40;102939.00;;;9.50
20736;BMP180;10528;52.124;5.196;2023-01-28T04:46:23;102931.00;;;9.50
20736;BMP180;10528;52.124;5.196;2023-01-28T04:49:01;102921.00;;;9.50
20736;BMP180;10528;52.124;5.196;2023-01-28T04:51:39;102919.00;;;9.50
20736;BMP180;10528;52.124;5.196;2023-01-28T04:54:25;102920.00;;;9.50
20736;BMP180;10528;52.124;5.196;2023-01-28T04:56:55;102910.00;;;9.50
20736;BMP180;10528;52.124;5.196;2023-01-28T04:59:22;102913.00;;;9.50
20736;BMP180;10528;52.124;5.196;2023-01-28T05:01:50;102909.00;;;9.50
20736;BMP180;10528;52.124;5.196;2023-01-28T05:04:17;102912.00;;;9.50
20736;BMP180;10528;52.124;5.196;2023-01-28T05:06:45;102905.00;;;9.50
20736;BMP180;10528;52.124;5.196;2023-01-28T05:09:18;102907.00;;;9.50
20736;BMP180;10528;52.124;5.196;2023-01-28T05:11:45;102907.00;;;9.50
20736;BMP180;10528;52.124;5.196;2023-01-28T05:14:13;102914.00;;;9.50
20736;BMP180;10528;52.124;5.196;2023-01-28T05:16:49;102908.00;;;9.50
20736;BMP180;10528;52.124;5.196;2023-01-28T05:19:16;102919.00;;;9.50
20736;BMP180;10528;52.124;5.196;2023-01-28T05:21:45;102918.00;;;9.60
20736;BMP180;10528;52.124;5.196;2023-01-28T05:24:32;102916.00;;;9.60
20736;BMP180;10528;52.124;5.196;2023-01-28T05:26:59;102916.00;;;9.60
20736;BMP180;10528;52.124;5.196;2023-01-28T05:29:26;102921.00;;;9.60
20736;BMP180;10528;52.124;5.196;2023-01-28T05:31:53;102919.00;;;9.60
20736;BMP180;10528;52.124;5.196;2023-01-28T05:34:20;102918.00;;;9.60
20736;BMP180;10528;52.124;5.196;2023-01-28T05:36:47;102919.00;;;9.60
20736;BMP180;10528;52.124;5.196;2023-01-28T05:39:31;102915.00;;;9.60
20736;BMP180;10528;52.124;5.196;2023-01-28T05:41:58;102919.00;;;9.50
20736;BMP180;10528;52.124;5.196;2023-01-28T05:44:25;102908.00;;;9.60
20736;BMP180;10528;52.124;5.196;2023-01-28T05:46:58;102908.00;;;9.60
20736;BMP180;10528;52.124;5.196;2023-01-28T05:49:49;102916.00;;;9.60
20736;BMP180;10528;52.124;5.196;2023-01-28T05:52:36;102914.00;;;9.50
20736;BMP180;10528;52.124;5.196;2023-01-28T05:55:07;102926.00;;;9.60
20736;BMP180;10528;52.124;5.196;2023-01-28T05:57:34;102916.00;;;9.60
20736;BMP180;10528;52.124;5.196;2023-01-28T06:00:02;102913.00;;;9.60
20736;BMP180;10528;52.124;5.196;2023-01-28T06:02:41;102923.00;;;9.60
20736;BMP180;10528;52.124;5.196;2023-01-28T06:05:11;102934.00;;;9.60
20736;BMP180;10528;52.124;5.196;2023-01-28T06:07:38;102921.00;;;9.60
20736;BMP180;10528;52.124;5.196;2023-01-28T06:10:09;102906.00;;;9.60
20736;BMP180;10528;52.124;5.196;2023-01-28T06:12:36;102921.00;;;9.50
20736;BMP180;10528;52.124;5.196;2023-01-28T06:15:29;102913.00;;;9.50
20736;BMP180;10528;52.124;5.196;2023-01-28T06:18:19;102921.00;;;9.50
20736;BMP180;10528;52.124;5.196;2023-01-28T06:20:51;102916.00;;;9.50
20736;BMP180;10528;52.124;5.196;2023-01-28T06:23:18;102921.00;;;9.50
20736;BMP180;10528;52.124;5.196;2023-01-28T06:25:45;102923.00;;;9.50
20736;BMP180;10528;52.124;5.196;2023-01-28T06:28:14;102921.00;;;9.50
20736;BMP180;10528;52.124;5.196;2023-01-28T06:30:41;102920.00;;;9.50
20736;BMP180;10528;52.124;5.196;2023-01-28T06:33:08;102930.00;;;9.50
20736;BMP180;10528;52.124;5.196;2023-01-28T06:35:35;102923.00;;;9.50
20736;BMP180;10528;52.124;5.196;2023-01-28T06:38:02;102931.00;;;9.50
20736;BMP180;10528;52.124;5.196;2023-01-28T06:40:30;102943.00;;;9.50
20736;BMP180;10528;52.124;5.196;2023-01-28T06:42:57;102940.00;;;9.50
20736;BMP180;10528;52.124;5.196;2023-01-28T06:45:24;102937.00;;;9.50
20736;BMP180;10528;52.124;5.196;2023-01-28T06:47:51;102940.00;;;9.50
20736;BMP180;10528;52.124;5.196;2023-01-28T06:50:18;102941.00;;;9.50
20736;BMP180;10528;52.124;5.196;2023-01-28T06:52:45;102936.00;;;9.50
20736;BMP180;10528;52.124;5.196;2023-01-28T06:55:12;102955.00;;;9.50
20736;BMP180;10528;52.124;5.196;2023-01-28T06:57:40;102950.00;;;9.50
20736;BMP180;10528;52.124;5.196;2023-01-28T07:00:10;102953.00;;;9.50
20736;BMP180;10528;52.124;5.196;2023-01-28T07:02:39;102936.00;;;9.40
20736;BMP180;10528;52.124;5.196;2023-01-28T07:05:06;102953.00;;;9.40
20736;BMP180;10528;52.124;5.196;2023-01-28T07:07:33;102947.00;;;9.40
20736;BMP180;10528;52.124;5.196;2023-01-28T07:10:00;102951.00;;;9.40
20736;BMP180;10528;52.124;5.196;2023-01-28T07:12:27;102946.00;;;9.40
20736;BMP180;10528;52.124;5.196;2023-01-28T07:14:54;102947.00;;;9.30
20736;BMP180;10528;52.124;5.196;2023-01-28T07:17:20;102948.00;;;9.30
20736;BMP180;10528;52.124;5.196;2023-01-28T07:19:47;102958.00;;;9.30
20736;BMP180;10528;52.124;5.196;2023-01-28T07:22:14;102958.00;;;9.30
20736;BMP180;10528;52.124;5.196;2023-01-28T07:24:41;102954.00;;;9.30
20736;BMP180;10528;52.124;5.196;2023-01-28T07:27:08;102962.00;;;9.30
20736;BMP180;10528;52.124;5.196;2023-01-28T07:29:35;102965.00;;;9.30
20736;BMP180;10528;52.124;5.196;2023-01-28T07:32:02;102966.00;;;9.30
20736;BMP180;10528;52.124;5.196;2023-01-28T07:34:30;102963.00;;;9.30
20736;BMP180;10528;52.124;5.196;2023-01-28T07:36:57;102970.00;;;9.30
20736;BMP180;10528;52.124;5.196;2023-01-28T07:39:24;102971.00;;;9.30
20736;BMP180;10528;52.124;5.196;2023-01-28T07:41:51;102982.00;;;9.30
20736;BMP180;10528;52.124;5.196;2023-01-28T07:44:38;102973.00;;;9.30
20736;BMP180;10528;52.124;5.196;2023-01-28T07:47:05;102975.00;;;9.30
20736;BMP180;10528;52.124;5.196;2023-01-28T07:49:33;102989.00;;;9.30
20736;BMP180;10528;52.124;5.196;2023-01-28T07:52:00;102984.00;;;9.30
20736;BMP180;10528;52.124;5.196;2023-01-28T07:54:27;102980.00;;;9.30
20736;BMP180;10528;52.124;5.196;2023-01-28T07:56:54;102995.00;;;9.30
20736;BMP180;10528;52.124;5.196;2023-01-28T07:59:21;102977.00;;;9.30
20736;BMP180;10528;52.124;5.196;2023-01-28T08:01:48;102992.00;;;9.30
20736;BMP180;10528;52.124;5.196;2023-01-28T08:04:15;102992.00;;;9.20
20736;BMP180;10528;52.124;5.196;2023-01-28T08:06:42;102987.00;;;9.20
20736;BMP180;10528;52.124;5.196;2023-01-28T08:09:08;102994.00;;;9.20
20736;BMP180;10528;52.124;5.196;2023-01-28T08:11:38;102975.00;;;9.20
20736;BMP180;10528;52.124;5.196;2023-01-28T08:14:05;102991.00;;;9.20
20736;BMP180;10528;52.124;5.196;2023-01-28T08:16:32;102993.00;;;9.30
20736;BMP180;10528;52.124;5.196;2023-01-28T08:18:59;102989.00;;;9.30
20736;BMP180;10528;52.124;5.196;2023-01-28T08:21:27;103001.00;;;9.30
20736;BMP180;10528;52.124;5.196;2023-01-28T08:23:54;102995.00;;;9.40
20736;BMP180;10528;52.124;5.196;2023-01-28T08:26:22;102992.00;;;9.40
20736;BMP180;10528;52.124;5.196;2023-01-28T08:28:49;102997.00;;;9.40
20736;BMP180;10528;52.124;5.196;2023-01-28T08:31:17;103003.00;;;9.40
20736;BMP180;10528;52.124;5.196;2023-01-28T08:33:44;103003.00;;;9.40
20736;BMP180;10528;52.124;5.196;2023-01-28T08:36:11;103003.00;;;9.50
20736;BMP180;10528;52.124;5.196;2023-01-28T08:38:38;103003.00;;;9.50
20736;BMP180;10528;52.124;5.196;2023-01-28T08:41:05;102999.00;;;9.50
20736;BMP180;10528;52.124;5.196;2023-01-28T08:43:32;103020.00;;;9.50
20736;BMP180;10528;52.124;5.196;2023-01-28T08:45:59;103030.00;;;9.50
20736;BMP180;10528;52.124;5.196;2023-01-28T08:48:26;103036.00;;;9.50
20736;BMP180;10528;52.124;5.196;2023-01-28T08:50:52;103032.00;;;9.50
20736;BMP180;10528;52.124;5.196;2023-01-28T08:53:24;103032.00;;;9.50
20736;BMP180;10528;52.124;5.196;2023-01-28T08:55:52;103018.00;;;9.50
20736;BMP180;10528;52.124;5.196;2023-01-28T08:58:19;103031.00;;;9.60
20736;BMP180;10528;52.124;5.196;2023-01-28T09:00:47;103032.00;;;9.60
20736;BMP180;10528;52.124;5.196;2023-01-28T09:03:15;103035.00;;;9.60
20736;BMP180;10528;52.124;5.196;2023-01-28T09:05:41;103029.00;;;9.70
20736;BMP180;10528;52.124;5.196;2023-01-28T09:08:13;103019.00;;;9.70
20736;BMP180;10528;52.124;5.196;2023-01-28T09:10:41;103018.00;;;9.70
20736;BMP180;10528;52.124;5.196;2023-01-28T09:13:14;103025.00;;;9.70
20736;BMP180;10528;52.124;5.196;2023-01-28T09:15:42;103030.00;;;9.70
20736;BMP180;10528;52.124;5.196;2023-01-28T09:18:09;103030.00;;;9.60
20736;BMP180;10528;52.124;5.196;2023-01-28T09:20:36;103038.00;;;9.60
20736;BMP180;10528;52.124;5.196;2023-01-28T09:23:04;103041.00;;;9.60
20736;BMP180;10528;52.124;5.196;2023-01-28T09:25:32;103047.00;;;9.60
20736;BMP180;10528;52.124;5.196;2023-01-28T09:27:59;103045.00;;;9.60
20736;BMP180;10528;52.124;5.196;2023-01-28T09:30:27;103051.00;;;9.60
20736;BMP180;10528;52.124;5.196;2023-01-28T09:32:56;103051.00;;;9.60
20736;BMP180;10528;52.124;5.196;2023-01-28T09:35:24;103047.00;;;9.50
20736;BMP180;10528;52.124;5.196;2023-01-28T09:37:51;103047.00;;;9.50
20736;BMP180;10528;52.124;5.196;2023-01-28T09:40:44;103052.00;;;9.50
20736;BMP180;10528;52.124;5.196;2023-01-28T09:46:05;103045.00;;;9.50
20736;BMP180;10528;52.124;5.196;2023-01-28T09:48:40;103042.00;;;9.60
20736;BMP180;10528;52.124;5.196;2023-01-28T09:51:43;103054.00;;;9.60
20736;BMP180;10528;52.124;5.196;2023-01-28T09:57:18;103057.00;;;9.60
20736;BMP180;10528;52.124;5.196;2023-01-28T09:59:46;103050.00;;;9.70
20736;BMP180;10528;52.124;5.196;2023-01-28T10:02:45;103060.00;;;9.70
20736;BMP180;10528;52.124;5.196;2023-01-28T10:14:32;103071.00;;;9.90
20736;BMP180;10528;52.124;5.196;2023-01-28T10:17:16;103065.00;;;9.90
20736;BMP180;10528;52.124;5.196;2023-01-28T10:20:02;103060.00;;;9.90
20736;BMP180;10528;52.124;5.196;2023-01-28T10:22:38;103058.00;;;10.00
20736;BMP180;10528;52.124;5.196;2023-01-28T10:25:21;103052.00;;;10.10
20736;BMP180;10528;52.124;5.196;2023-01-28T10:27:50;103042.00;;;10.10
20736;BMP180;10528;52.124;5.196;2023-01-28T10:33:17;103042.00;;;10.30
20736;BMP180;10528;52.124;5.196;2023-01-28T10:35:44;103048.00;;;10.30
20736;BMP180;10528;52.124;5.196;2023-01-28T10:38:20;103046.00;;;10.40
20736;BMP180;10528;52.124;5.196;2023-01-28T10:40:48;103056.00;;;10.50
20736;BMP180;10528;52.124;5.196;2023-01-28T10:43:22;103051.00;;;10.50
20736;BMP180;10528;52.124;5.196;2023-01-28T10:46:31;103043.00;;;10.60
20736;BMP180;10528;52.124;5.196;2023-01-28T10:49:12;103037.00;;;10.60
20736;BMP180;10528;52.124;5.196;2023-01-28T10:51:42;103038.00;;;10.60
20736;BMP180;10528;52.124;5.196;2023-01-28T10:54:28;103032.00;;;10.70
20736;BMP180;10528;52.124;5.196;2023-01-28T10:57:04;103029.00;;;10.70
20736;BMP180;10528;52.124;5.196;2023-01-28T10:59:36;103019.00;;;10.80
20736;BMP180;10528;52.124;5.196;2023-01-28T11:02:33;103006.00;;;10.80
20736;BMP180;10528;52.124;5.196;2023-01-28T11:07:43;102988.00;;;10.90
20736;BMP180;10528;52.124;5.196;2023-01-28T11:10:31;102990.00;;;10.90
20736;BMP180;10528;52.124;5.196;2023-01-28T11:13:04;102989.00;;;10.90
20736;BMP180;10528;52.124;5.196;2023-01-28T11:15:31;102976.00;;;11.00
20736;BMP180;10528;52.124;5.196;2023-01-28T11:18:05;102967.00;;;11.10
20736;BMP180;10528;52.124;5.196;2023-01-28T11:20:40;102966.00;;;11.10
20736;BMP180;10528;52.124;5.196;2023-01-28T11:23:24;102967.00;;;11.20
20736;BMP180;10528;52.124;5.196;2023-01-28T11:26:08;102959.00;;;11.30
20736;BMP180;10528;52.124;5.196;2023-01-28T11:28:42;102953.00;;;11.30
20736;BMP180;10528;52.124;5.196;2023-01-28T11:31:14;102937.00;;;11.40
20736;BMP180;10528;52.124;5.196;2023-01-28T11:34:03;102948.00;;;11.40
20736;BMP180;10528;52.124;5.196;2023-01-28T11:36:33;102929.00;;;11.40
20736;BMP180;10528;52.124;5.196;2023-01-28T11:39:23;102933.00;;;11.40
20736;BMP180;10528;52.124;5.196;2023-01-28T11:41:52;102929.00;;;11.40
20736;BMP180;10528;52.124;5.196;2023-01-28T11:44:23;102919.00;;;11.40
20736;BMP180;10528;52.124;5.196;2023-01-28T11:47:15;102932.00;;;11.40
20736;BMP180;10528;52.124;5.196;2023-01-28T12:04:16;102961.00;;;11.60
20736;BMP180;10528;52.124;5.196;2023-01-28T12:07:25;102953.00;;;11.60
20736;BMP180;10528;52.124;5.196;2023-01-28T12:10:06;102949.00;;;11.60
20736;BMP180;10528;52.124;5.196;2023-01-28T12:15:45;102947.00;;;11.70
20736;BMP180;10528;52.124;5.196;2023-01-28T12:18:42;102963.00;;;11.70
20736;BMP180;10528;52.124;5.196;2023-01-28T12:21:55;102966.00;;;11.70
20736;BMP180;10528;52.124;5.196;2023-01-28T12:24:51;102968.00;;;11.80
20736;BMP180;10528;52.124;5.196;2023-01-28T12:27:50;102962.00;;;11.80
20736;BMP180;10528;52.124;5.196;2023-01-28T12:33:30;102966.00;;;11.90
20736;BMP180;10528;52.124;5.196;2023-01-28T12:36:24;102963.00;;;11.90
20736;BMP180;10528;52.124;5.196;2023-01-28T12:42:26;102959.00;;;12.00
20736;BMP180;10528;52.124;5.196;2023-01-28T12:45:10;102950.00;;;12.00
20736;BMP180;10528;52.124;5.196;2023-01-28T12:47:42;102950.00;;;12.00
20736;BMP180;10528;52.124;5.196;2023-01-28T12:50:30;102933.00;;;12.00
20736;BMP180;10528;52.124;5.196;2023-01-28T12:53:12;102915.00;;;12.00
20736;BMP180;10528;52.124;5.196;2023-01-28T12:55:53;102909.00;;;12.00
20736;BMP180;10528;52.124;5.196;2023-01-28T12:58:38;102913.00;;;12.00
20736;BMP180;10528;52.124;5.196;2023-01-28T13:01:16;102896.00;;;12.00
20736;BMP180;10528;52.124;5.196;2023-01-28T13:03:52;102898.00;;;12.00
20736;BMP180;10528;52.124;5.196;2023-01-28T13:06:37;102878.00;;;12.00
20736;BMP180;10528;52.124;5.196;2023-01-28T13:09:21;102883.00;;;12.10
20736;BMP180;10528;52.124;5.196;2023-01-28T13:11:54;102876.00;;;12.10
20736;BMP180;10528;52.124;5.196;2023-01-28T13:14:30;102888.00;;;12.20
20736;BMP180;10528;52.124;5.196;2023-01-28T13:17:27;102890.00;;;12.30
20736;BMP180;10528;52.124;5.196;2023-01-28T13:19:56;102895.00;;;12.30
20736;BMP180;10528;52.124;5.196;2023-01-28T13:22:34;102891.00;;;12.30
20736;BMP180;10528;52.124;5.196;2023-01-28T13:25:18;102880.00;;;12.30
20736;BMP180;10528;52.124;5.196;2023-01-28T13:28:00;102880.00;;;12.30
20736;BMP180;10528;52.124;5.196;2023-01-28T13:30:47;102877.00;;;12.30
20736;BMP180;10528;52.124;5.196;2023-01-28T13:33:30;102866.00;;;12.30
20736;BMP180;10528;52.124;5.196;2023-01-28T13:36:18;102868.00;;;12.30
20736;BMP180;10528;52.124;5.196;2023-01-28T13:46:46;102879.00;;;12.30
20736;BMP180;10528;52.124;5.196;2023-01-28T13:49:21;102875.00;;;12.30
20736;BMP180;10528;52.124;5.196;2023-01-28T13:55:21;102865.00;;;12.30
20736;BMP180;10528;52.124;5.196;2023-01-28T14:02:14;102876.00;;;12.20
20736;BMP180;10528;52.124;5.196;2023-01-28T14:19:44;102902.00;;;12.30
20736;BMP180;10528;52.124;5.196;2023-01-28T14:22:18;102902.00;;;12.30
20736;BMP180;10528;52.124;5.196;2023-01-28T14:24:46;102905.00;;;12.40
20736;BMP180;10528;52.124;5.196;2023-01-28T14:27:27;102905.00;;;12.40
20736;BMP180;10528;52.124;5.196;2023-01-28T14:30:42;102908.00;;;12.40
20736;BMP180;10528;52.124;5.196;2023-01-28T14:33:13;102898.00;;;12.40
20736;BMP180;10528;52.124;5.196;2023-01-28T14:35:46;102883.00;;;12.50
20736;BMP180;10528;52.124;5.196;2023-01-28T14:38:18;102899.00;;;12.50
20736;BMP180;10528;52.124;5.196;2023-01-28T14:40:54;102890.00;;;12.50
20736;BMP180;10528;52.124;5.196;2023-01-28T14:43:24;102901.00;;;12.50
20736;BMP180;10528;52.124;5.196;2023-01-28T14:46:35;102896.00;;;12.50
20736;BMP180;10528;52.124;5.196;2023-01-28T14:49:35;102900.00;;;12.50
20736;BMP180;10528;52.124;5.196;2023-01-28T14:53:08;102903.00;;;12.50
20736;BMP180;10528;52.124;5.196;2023-01-28T14:55:54;102905.00;;;12.50
20736;BMP180;10528;52.124;5.196;2023-01-28T14:58:29;102912.00;;;12.50
20736;BMP180;10528;52.124;5.196;2023-01-28T15:01:00;102901.00;;;12.50
20736;BMP180;10528;52.124;5.196;2023-01-28T15:03:29;102916.00;;;12.50
20736;BMP180;10528;52.124;5.196;2023-01-28T15:06:11;102926.00;;;12.50
20736;BMP180;10528;52.124;5.196;2023-01-28T15:08:38;102932.00;;;12.50
20736;BMP180;10528;52.124;5.196;2023-01-28T15:11:12;102918.00;;;12.50
20736;BMP180;10528;52.124;5.196;2023-01-28T15:13:46;102923.00;;;12.50
20736;BMP180;10528;52.124;5.196;2023-01-28T15:16:20;102923.00;;;12.50
20736;BMP180;10528;52.124;5.196;2023-01-28T15:18:48;102929.00;;;12.50
20736;BMP180;10528;52.124;5.196;2023-01-28T15:21:21;102937.00;;;12.50
20736;BMP180;10528;52.124;5.196;2023-01-28T15:23:53;102927.00;;;12.50
20736;BMP180;10528;52.124;5.196;2023-01-28T15:26:24;102948.00;;;12.50
20736;BMP180;10528;52.124;5.196;2023-01-28T15:28:54;102970.00;;;12.50
20736;BMP180;10528;52.124;5.196;2023-01-28T15:31:22;102948.00;;;12.50
20736;BMP180;10528;52.124;5.196;2023-01-28T15:34:12;102943.00;;;12.40
20736;BMP180;10528;52.124;5.196;2023-01-28T15:36:40;102928.00;;;12.40
20736;BMP180;10528;52.124;5.196;2023-01-28T15:39:20;102929.00;;;12.40
20736;BMP180;10528;52.124;5.196;2023-01-28T15:41:51;102922.00;;;12.40
20736;BMP180;10528;52.124;5.196;2023-01-28T15:44:36;102912.00;;;12.40
20736;BMP180;10528;52.124;5.196;2023-01-28T15:47:16;102919.00;;;12.30
20736;BMP180;10528;52.124;5.196;2023-01-28T15:49:47;102919.00;;;12.30
20736;BMP180;10528;52.124;5.196;2023-01-28T15:52:15;102933.00;;;12.20
20736;BMP180;10528;52.124;5.196;2023-01-28T15:54:48;102944.00;;;12.20
20736;BMP180;10528;52.124;5.196;2023-01-28T15:57:27;102933.00;;;12.20
20736;BMP180;10528;52.124;5.196;2023-01-28T16:02:46;102940.00;;;12.10
20736;BMP180;10528;52.124;5.196;2023-01-28T16:05:34;102941.00;;;12.10
20736;BMP180;10528;52.124;5.196;2023-01-28T16:08:09;102962.00;;;12.10
20736;BMP180;10528;52.124;5.196;2023-01-28T16:10:37;102964.00;;;12.10
20736;BMP180;10528;52.124;5.196;2023-01-28T16:13:20;102958.00;;;12.00
20736;BMP180;10528;52.124;5.196;2023-01-28T16:15:51;102949.00;;;12.00
20736;BMP180;10528;52.124;5.196;2023-01-28T16:18:46;102951.00;;;12.00
20736;BMP180;10528;52.124;5.196;2023-01-28T16:21:29;102959.00;;;12.00
20736;BMP180;10528;52.124;5.196;2023-01-28T16:24:02;102950.00;;;12.00
20736;BMP180;10528;52.124;5.196;2023-01-28T16:26:33;102941.00;;;12.00